Portada
METAR-TAF:

METAR-TAF

Aeroports :

Mount Isa, Austràlia

latitud: 20-40S, longitud: 139-28E, altitud: 342 m

Observació

L'informe es va fer fa 27 minuts, a les 04:30 UTC
Vent 7 kt del Nord, variant entre Nord/Nord-Oest i Est
Temperatura 32°C
Humitat 46%
Pressió 1012 hPa
Visibilitat 10 km o més

METAR: YBMA 200430Z AUTO 35007KT 330V100 9999 // NCD 32/19 Q1012 RF00.0/007.2

Hora: 14:57 (04:57 UTC)

Pronòstic

L'informe es va fer fa 5 hores i 38 minuts, a les 23:19 UTC
Pronòstic vàlid del 20 a les 00 UTC al 20 a les 12 UTC
Vent 9 kt del Nord
Visibilitat 10 km o més
sense núvols per sota de 1500 mi sense presència de cumulonimbus.
Probabilitat 30% :
Temporalment
l' 20 a les 00 UTC al 20 a les 12 UTC
Vent 25 kt amb direcció variable amb ràfegues de 35 kt
Visibilitat: 3000 m
Núvols disperses a una alçada de 3000 ft
Cel ennuvolat a una alçada de 4000 ft, Cumulonimbus.
tempesta, pluja

TAF: YBMA 192319Z 2000/2012 35009KT CAVOK PROB30 TEMPO 2000/2012 VRB25G35KT 3000 TSRA SCT030 BKN040CB

Observacions i pronòstics meteorològics de més de 4000 aeroports (METAR i TAF).

Les estacions disponibles són els punts grocs i vermells al mapa.

Posi el ratolí al punt desitjat per veure el nom de l'estació.

Feu clic per veure les observacions i els pronòstics meteorològics.

Per canviar el mapa: feu clic els botons verds amb una creu de color negre per apropar; al botó verd amb un guió per allunyar la imatge; o en les fletxes verdes per a mapes adjacents.


METAR-TAF: